createdAt,value
2023-04-08T00:00:09.580Z,2.30
2023-04-08T00:02:37.011Z,1.92
2023-04-08T00:05:04.786Z,1.42
2023-04-08T00:07:34.416Z,1.80
2023-04-08T00:10:01.637Z,2.50
2023-04-08T00:12:28.878Z,2.30
2023-04-08T00:14:57.673Z,3.33
2023-04-08T00:17:24.939Z,2.30
2023-04-08T00:19:52.915Z,2.95
2023-04-08T00:22:20.238Z,2.72
2023-04-08T00:24:47.500Z,3.08
2023-04-08T00:27:14.722Z,2.35
2023-04-08T00:29:41.941Z,3.30
2023-04-08T00:32:09.157Z,2.72
2023-04-08T00:34:37.236Z,2.20
2023-04-08T00:37:04.555Z,3.72
2023-04-08T00:39:31.811Z,2.80
2023-04-08T00:41:59.128Z,3.47
2023-04-08T00:44:26.398Z,3.20
2023-04-08T00:46:53.581Z,5.00
2023-04-08T00:49:22.234Z,3.67
2023-04-08T00:51:49.425Z,4.68
2023-04-08T00:54:16.658Z,3.72
2023-04-08T00:56:44.865Z,3.75
2023-04-08T00:59:12.235Z,3.53
2023-04-08T01:01:51.996Z,4.30
2023-04-08T01:04:45.899Z,4.03
2023-04-08T01:07:23.195Z,4.45
2023-04-08T01:09:53.839Z,4.22
2023-04-08T01:12:23.311Z,4.20
2023-04-08T01:14:52.864Z,3.75
2023-04-08T01:17:20.682Z,4.47
2023-04-08T01:19:48.995Z,5.18
2023-04-08T01:22:33.353Z,4.95
2023-04-08T01:25:03.643Z,4.82
2023-04-08T01:27:31.753Z,5.88
2023-04-08T01:29:59.448Z,4.30
2023-04-08T01:32:27.698Z,5.55
2023-04-08T01:34:56.037Z,3.88
2023-04-08T01:37:23.400Z,4.07
2023-04-08T01:39:50.971Z,2.67
2023-04-08T01:42:18.718Z,2.70
2023-04-08T01:44:46.520Z,2.40
2023-04-08T01:47:14.510Z,2.95
2023-04-08T01:49:42.305Z,2.08
2023-04-08T01:52:10.676Z,1.40
2023-04-08T01:54:37.929Z,2.33
2023-04-08T01:57:08.812Z,2.30
2023-04-08T01:59:37.045Z,1.90
2023-04-08T02:02:06.180Z,2.40
2023-04-08T02:04:34.681Z,2.47
2023-04-08T02:07:02.738Z,2.13
2023-04-08T02:09:30.373Z,2.25
2023-04-08T02:11:57.902Z,1.85
2023-04-08T02:14:26.387Z,3.10
2023-04-08T02:17:19.757Z,4.68
2023-04-08T02:19:53.645Z,4.68
2023-04-08T02:22:26.533Z,5.45
2023-04-08T02:24:54.264Z,5.05
2023-04-08T02:27:21.733Z,3.40
2023-04-08T02:29:50.415Z,3.15
2023-04-08T02:32:18.151Z,2.85
2023-04-08T02:34:45.739Z,2.53
2023-04-08T02:37:13.262Z,1.90
2023-04-08T02:39:40.613Z,2.72
2023-04-08T02:42:08.223Z,2.13
2023-04-08T02:44:36.233Z,1.98
2023-04-08T02:47:03.479Z,2.42
2023-04-08T02:49:30.907Z,1.88
2023-04-08T02:51:58.121Z,1.98
2023-04-08T02:54:25.486Z,2.22
2023-04-08T02:56:52.704Z,2.05
2023-04-08T02:59:19.933Z,2.78
2023-04-08T03:01:47.202Z,2.58
2023-04-08T03:04:14.475Z,2.55
2023-04-08T03:06:41.713Z,3.25
2023-04-08T03:09:09.691Z,3.45
2023-04-08T03:11:37.003Z,3.15
2023-04-08T03:14:04.223Z,2.30
2023-04-08T03:16:31.532Z,2.40
2023-04-08T03:18:58.767Z,2.50
2023-04-08T03:21:27.109Z,2.75
2023-04-08T03:23:54.334Z,2.42
2023-04-08T03:26:21.634Z,3.33
2023-04-08T03:28:49.180Z,2.45
2023-04-08T03:31:16.846Z,2.95
2023-04-08T03:33:44.112Z,3.05
2023-04-08T03:36:12.210Z,2.13
2023-04-08T03:38:39.480Z,2.85
2023-04-08T03:41:06.718Z,2.30
2023-04-08T03:43:35.139Z,2.10
2023-04-08T03:46:03.446Z,2.58
2023-04-08T03:48:30.717Z,2.92
2023-04-08T03:50:58.016Z,3.35
2023-04-08T03:53:25.271Z,1.85
2023-04-08T03:55:52.507Z,1.67
2023-04-08T03:58:19.880Z,1.40
2023-04-08T04:00:47.148Z,1.80
2023-04-08T04:03:14.891Z,1.92
2023-04-08T04:05:42.406Z,1.75
2023-04-08T04:08:09.656Z,1.67
2023-04-08T04:10:36.946Z,1.77
2023-04-08T04:13:04.186Z,1.58
2023-04-08T04:15:31.664Z,1.70
2023-04-08T04:17:58.886Z,2.03
2023-04-08T04:20:26.239Z,1.52
2023-04-08T04:22:53.501Z,1.58
2023-04-08T04:25:20.870Z,1.73
2023-04-08T04:27:48.104Z,1.30
2023-04-08T04:30:15.799Z,1.58
2023-04-08T04:32:43.401Z,1.50
2023-04-08T04:35:11.078Z,1.25
2023-04-08T04:37:38.401Z,1.95
2023-04-08T04:40:06.059Z,2.38
2023-04-08T04:42:33.379Z,1.88
2023-04-08T04:45:00.633Z,2.00
2023-04-08T04:47:27.963Z,8.45
2023-04-08T04:49:55.447Z,8.02
2023-04-08T04:52:22.668Z,7.47
2023-04-08T04:54:49.970Z,7.78
2023-04-08T04:57:17.207Z,6.43
2023-04-08T04:59:44.470Z,5.28
2023-04-08T05:02:11.935Z,6.88
2023-04-08T05:04:39.308Z,5.82
2023-04-08T05:07:06.531Z,5.60
2023-04-08T05:09:33.739Z,4.80
2023-04-08T05:12:00.924Z,5.03
2023-04-08T05:14:30.501Z,4.82
2023-04-08T05:16:58.298Z,3.13
2023-04-08T05:19:25.798Z,3.33
2023-04-08T05:21:53.010Z,2.05
2023-04-08T05:24:20.282Z,2.45
2023-04-08T05:26:48.833Z,1.98
2023-04-08T05:29:16.067Z,3.05
2023-04-08T05:31:43.467Z,2.55
2023-04-08T05:34:11.545Z,3.13
2023-04-08T05:36:38.777Z,3.85
2023-04-08T05:39:06.016Z,3.63
2023-04-08T05:41:33.330Z,3.30
2023-04-08T05:44:00.765Z,3.78
2023-04-08T05:46:27.977Z,3.25
2023-04-08T05:48:55.425Z,3.13
2023-04-08T05:51:22.690Z,2.45
2023-04-08T05:53:49.909Z,2.70
2023-04-08T05:56:17.152Z,1.65
2023-04-08T05:58:44.514Z,1.88
2023-04-08T06:01:11.752Z,1.75
2023-04-08T06:03:39.192Z,2.20
2023-04-08T06:06:12.599Z,2.35
2023-04-08T06:08:39.801Z,1.45
2023-04-08T06:11:07.058Z,1.33
2023-04-08T06:13:34.827Z,2.65
2023-04-08T06:16:14.878Z,2.25
2023-04-08T06:18:42.347Z,3.40
2023-04-08T06:21:09.719Z,3.88
2023-04-08T06:23:37.151Z,5.40
2023-04-08T06:26:05.070Z,6.20
2023-04-08T06:28:32.413Z,11.30
2023-04-08T06:30:59.943Z,10.68
2023-04-08T06:33:27.184Z,12.15
2023-04-08T06:36:02.892Z,12.75
2023-04-08T06:38:30.593Z,10.65
2023-04-08T06:40:57.831Z,11.23
2023-04-08T06:43:25.148Z,10.45
2023-04-08T06:45:53.188Z,9.80
2023-04-08T06:48:21.064Z,8.27
2023-04-08T06:50:48.268Z,10.57
2023-04-08T06:53:15.649Z,10.90
2023-04-08T06:55:42.916Z,11.50
2023-04-08T06:58:10.155Z,9.70
2023-04-08T07:00:38.044Z,12.80
2023-04-08T07:03:05.391Z,13.18
2023-04-08T07:05:32.757Z,11.07
2023-04-08T07:08:00.111Z,12.18
2023-04-08T07:10:27.315Z,11.68
2023-04-08T07:12:54.818Z,11.23
2023-04-08T07:15:22.014Z,10.95
2023-04-08T07:17:49.263Z,10.35
2023-04-08T07:20:16.559Z,12.32
2023-04-08T07:22:43.749Z,12.98
2023-04-08T07:25:11.138Z,9.70
2023-04-08T07:27:38.326Z,9.73
2023-04-08T07:30:05.959Z,10.30
2023-04-08T07:32:34.393Z,14.52
2023-04-08T07:35:02.243Z,11.90
2023-04-08T07:37:29.506Z,8.90
2023-04-08T07:39:56.777Z,10.13
2023-04-08T07:42:24.165Z,13.13
2023-04-08T07:44:52.400Z,15.70
2023-04-08T07:47:19.606Z,19.05
2023-04-08T07:49:48.307Z,16.63
2023-04-08T07:52:15.835Z,19.40
2023-04-08T07:54:43.108Z,17.67
2023-04-08T07:57:10.392Z,18.52
2023-04-08T07:59:37.744Z,15.73
2023-04-08T08:02:05.368Z,17.17
2023-04-08T08:04:32.830Z,15.50
2023-04-08T08:07:00.312Z,14.15
2023-04-08T08:09:27.649Z,14.88
2023-04-08T08:11:54.909Z,16.42
2023-04-08T08:14:22.248Z,16.50
2023-04-08T08:16:49.776Z,13.90
2023-04-08T08:19:17.026Z,14.88
2023-04-08T08:21:44.308Z,16.65
2023-04-08T08:24:11.799Z,16.10
2023-04-08T08:26:39.070Z,18.77
2023-04-08T08:29:09.011Z,21.15
2023-04-08T08:31:36.330Z,15.98
2023-04-08T08:34:03.811Z,15.18
2023-04-08T08:36:32.739Z,18.27
2023-04-08T08:39:01.844Z,16.10
2023-04-08T08:41:33.741Z,18.92
2023-04-08T08:44:01.255Z,19.73
2023-04-08T08:46:28.521Z,16.17
2023-04-08T08:48:55.754Z,18.83
2023-04-08T08:51:23.200Z,16.75
2023-04-08T08:53:51.041Z,18.00
2023-04-08T08:56:19.109Z,17.40
2023-04-08T08:58:47.840Z,16.45
2023-04-08T09:01:34.612Z,21.27
2023-04-08T09:04:08.917Z,16.13
2023-04-08T09:06:37.005Z,20.27
2023-04-08T09:09:06.258Z,19.80
2023-04-08T09:11:33.469Z,18.20
2023-04-08T09:14:00.800Z,17.73
2023-04-08T09:16:29.047Z,15.52
2023-04-08T09:18:56.800Z,14.57
2023-04-08T09:21:27.905Z,12.38
2023-04-08T09:23:55.223Z,16.63
2023-04-08T09:26:24.314Z,14.77
2023-04-08T09:29:18.424Z,13.07
2023-04-08T09:32:01.766Z,11.95
2023-04-08T09:34:32.396Z,12.82
2023-04-08T09:36:59.657Z,17.88
2023-04-08T09:39:26.961Z,10.45
2023-04-08T09:41:55.875Z,10.77
2023-04-08T09:44:26.844Z,12.10
2023-04-08T09:46:57.450Z,10.90
2023-04-08T09:49:28.481Z,10.35
2023-04-08T09:51:59.509Z,10.43
2023-04-08T09:54:32.332Z,13.35
2023-04-08T09:57:03.761Z,11.55
2023-04-08T09:59:34.080Z,13.50
2023-04-08T10:02:04.251Z,13.52
2023-04-08T10:04:32.434Z,12.43
2023-04-08T10:07:02.602Z,16.23
2023-04-08T10:09:30.232Z,14.15
2023-04-08T10:11:57.560Z,14.40
2023-04-08T10:14:28.702Z,14.63
2023-04-08T10:17:14.784Z,13.15
2023-04-08T10:19:42.246Z,14.50
2023-04-08T10:22:35.919Z,12.90
2023-04-08T10:25:18.267Z,14.48
2023-04-08T10:27:46.293Z,16.05
2023-04-08T10:30:33.770Z,14.98
2023-04-08T10:33:01.773Z,13.35
2023-04-08T10:35:42.408Z,13.50
2023-04-08T10:38:09.879Z,17.10
2023-04-08T10:40:41.539Z,14.02
2023-04-08T10:43:09.156Z,12.70
2023-04-08T10:45:36.460Z,16.13
2023-04-08T10:48:20.683Z,16.40
2023-04-08T10:51:01.108Z,16.27
2023-04-08T10:53:29.505Z,13.48
2023-04-08T10:56:11.120Z,11.05
2023-04-08T10:58:48.120Z,9.73
2023-04-08T11:01:15.330Z,13.65
2023-04-08T11:03:43.292Z,11.85
2023-04-08T11:06:11.178Z,8.95
2023-04-08T11:08:38.609Z,10.65
2023-04-08T11:11:10.968Z,11.35
2023-04-08T11:13:51.228Z,12.82
2023-04-08T11:16:20.148Z,14.38
2023-04-08T11:18:48.032Z,15.27
2023-04-08T11:21:16.740Z,13.65
2023-04-08T11:23:44.073Z,11.10
2023-04-08T11:26:11.745Z,12.90
2023-04-08T11:28:39.142Z,13.70
2023-04-08T11:31:08.894Z,13.30
2023-04-08T11:33:36.394Z,9.63
2023-04-08T11:36:04.817Z,9.95
2023-04-08T11:38:32.181Z,6.35
2023-04-08T11:41:00.450Z,6.43
2023-04-08T11:43:28.814Z,7.38
2023-04-08T11:45:56.128Z,5.78
2023-04-08T11:48:23.864Z,8.00
2023-04-08T11:51:03.666Z,8.35
2023-04-08T11:53:31.016Z,10.00
2023-04-08T11:55:58.249Z,8.85
2023-04-08T11:58:26.064Z,8.77
2023-04-08T12:00:53.701Z,9.48
2023-04-08T12:03:21.103Z,9.68
2023-04-08T12:05:48.403Z,7.45
2023-04-08T12:08:16.184Z,9.38
2023-04-08T12:10:43.540Z,8.15
2023-04-08T12:13:10.806Z,10.57
2023-04-08T12:15:38.416Z,10.20
2023-04-08T12:18:06.415Z,9.32
2023-04-08T12:20:33.814Z,9.00
2023-04-08T12:23:01.941Z,10.52
2023-04-08T12:25:29.243Z,10.55
2023-04-08T12:27:56.450Z,8.00
2023-04-08T12:30:23.691Z,11.07
2023-04-08T12:32:50.991Z,11.15
2023-04-08T12:35:18.331Z,10.00
2023-04-08T12:37:45.795Z,12.55
2023-04-08T12:40:13.086Z,10.93
2023-04-08T12:42:40.501Z,9.43
2023-04-08T12:45:08.385Z,9.02
2023-04-08T12:47:35.662Z,7.18
2023-04-08T12:50:03.187Z,8.13
2023-04-08T12:52:30.426Z,9.35
2023-04-08T12:54:57.615Z,11.13
2023-04-08T12:57:24.823Z,9.60
2023-04-08T12:59:52.041Z,11.23
2023-04-08T13:02:19.328Z,7.60
2023-04-08T13:04:46.745Z,6.93
2023-04-08T13:07:13.980Z,9.73
2023-04-08T13:09:41.333Z,6.25
2023-04-08T13:12:08.855Z,7.38
2023-04-08T13:14:36.148Z,9.73
2023-04-08T13:17:03.451Z,8.23
2023-04-08T13:19:31.314Z,7.30
2023-04-08T13:21:58.526Z,7.70
2023-04-08T13:24:25.787Z,6.18
2023-04-08T13:26:53.006Z,7.18
2023-04-08T13:29:20.373Z,6.68
2023-04-08T13:31:47.664Z,6.07
2023-04-08T13:34:14.957Z,6.25
2023-04-08T13:36:42.381Z,7.40
2023-04-08T13:39:09.681Z,6.35
2023-04-08T13:41:36.902Z,5.97
2023-04-08T13:44:04.111Z,5.20
2023-04-08T13:46:31.406Z,6.60
2023-04-08T13:48:58.752Z,4.75
2023-04-08T13:51:27.297Z,4.80
2023-04-08T13:53:54.508Z,6.97
2023-04-08T13:56:22.008Z,6.22
2023-04-08T13:58:56.348Z,6.43
2023-04-08T14:01:24.632Z,6.15
2023-04-08T14:03:51.933Z,6.50
2023-04-08T14:06:19.149Z,5.80
2023-04-08T14:08:46.455Z,6.18
2023-04-08T14:11:13.669Z,6.82
2023-04-08T14:13:40.933Z,6.35
2023-04-08T14:16:08.440Z,5.22
2023-04-08T14:18:35.645Z,6.13
2023-04-08T14:21:03.664Z,6.20
2023-04-08T14:23:31.035Z,5.10
2023-04-08T14:25:58.264Z,4.55
2023-04-08T14:28:25.686Z,6.20
2023-04-08T14:30:53.022Z,5.75
2023-04-08T14:33:20.328Z,6.43
2023-04-08T14:35:47.840Z,6.90
2023-04-08T14:38:15.844Z,4.95
2023-04-08T14:40:43.075Z,8.60
2023-04-08T14:43:10.381Z,6.72
2023-04-08T14:45:37.583Z,6.60
2023-04-08T14:48:04.941Z,6.45
2023-04-08T14:50:32.484Z,5.88
2023-04-08T14:52:59.711Z,5.18
2023-04-08T14:55:28.601Z,6.50
2023-04-08T14:57:55.926Z,6.40
2023-04-08T15:00:23.197Z,5.85
2023-04-08T15:02:50.555Z,6.40
2023-04-08T15:05:18.039Z,8.30
2023-04-08T15:07:47.086Z,5.82
2023-04-08T15:10:14.331Z,5.93
2023-04-08T15:12:41.591Z,5.35
2023-04-08T15:15:09.645Z,5.20
2023-04-08T15:17:36.900Z,5.38
2023-04-08T15:20:04.287Z,6.40
2023-04-08T15:22:32.560Z,5.95
2023-04-08T15:25:00.116Z,6.00
2023-04-08T15:27:27.495Z,5.53
2023-04-08T15:29:54.758Z,5.43
2023-04-08T15:32:21.968Z,8.05
2023-04-08T15:34:50.735Z,4.38
2023-04-08T15:37:18.022Z,4.60
2023-04-08T15:39:45.767Z,5.18
2023-04-08T15:42:12.964Z,5.10
2023-04-08T15:44:40.866Z,6.13
2023-04-08T15:47:08.513Z,4.40
2023-04-08T15:49:35.860Z,5.90
2023-04-08T15:52:03.112Z,6.68
2023-04-08T15:54:31.213Z,5.18
2023-04-08T15:56:58.771Z,4.90
2023-04-08T15:59:26.076Z,4.68
2023-04-08T16:01:53.377Z,5.78
2023-04-08T16:04:20.981Z,4.75
2023-04-08T16:06:48.467Z,5.28
2023-04-08T16:09:18.699Z,4.15
2023-04-08T16:11:45.906Z,4.03
2023-04-08T16:14:13.115Z,3.80
2023-04-08T16:16:40.826Z,5.78
2023-04-08T16:19:08.177Z,5.38
2023-04-08T16:21:36.067Z,4.68
2023-04-08T16:24:03.761Z,4.45
2023-04-08T16:26:31.247Z,5.07
2023-04-08T16:28:58.475Z,4.30
2023-04-08T16:31:26.098Z,6.03
2023-04-08T16:33:53.678Z,4.97
2023-04-08T16:36:21.503Z,5.22
2023-04-08T16:38:48.725Z,3.63
2023-04-08T16:41:15.974Z,4.57
2023-04-08T16:43:43.208Z,5.03
2023-04-08T16:46:16.050Z,3.47
2023-04-08T16:48:44.294Z,4.35
2023-04-08T16:51:11.985Z,6.25
2023-04-08T16:53:39.699Z,5.30
2023-04-08T16:56:13.399Z,4.70
2023-04-08T16:58:40.936Z,4.30
2023-04-08T17:01:08.708Z,4.22
2023-04-08T17:03:36.394Z,3.88
2023-04-08T17:06:10.054Z,4.10
2023-04-08T17:08:37.505Z,4.65
2023-04-08T17:11:11.878Z,3.47
2023-04-08T17:13:39.826Z,2.70
2023-04-08T17:16:07.373Z,4.68
2023-04-08T17:18:34.664Z,3.47
2023-04-08T17:21:02.409Z,3.05
2023-04-08T17:23:29.753Z,2.80
2023-04-08T17:25:57.067Z,2.70
2023-04-08T17:28:24.354Z,4.28
2023-04-08T17:30:51.583Z,2.75
2023-04-08T17:33:18.988Z,3.83
2023-04-08T17:35:46.523Z,3.17
2023-04-08T17:38:13.868Z,2.42
2023-04-08T17:40:41.267Z,2.30
2023-04-08T17:43:08.551Z,1.83
2023-04-08T17:45:35.859Z,1.58
2023-04-08T17:48:05.874Z,1.45
2023-04-08T17:50:34.829Z,1.08
2023-04-08T17:53:02.715Z,0.95
2023-04-08T17:55:30.006Z,1.30
2023-04-08T17:57:57.448Z,2.15
2023-04-08T18:00:26.314Z,1.30
2023-04-08T18:02:53.938Z,1.05
2023-04-08T18:05:21.898Z,1.48
2023-04-08T18:07:49.141Z,1.05
2023-04-08T18:10:17.305Z,1.10
2023-04-08T18:12:44.611Z,1.35
2023-04-08T18:15:11.964Z,1.10
2023-04-08T18:17:39.201Z,1.20
2023-04-08T18:20:06.855Z,1.15
2023-04-08T18:22:34.052Z,1.30
2023-04-08T18:25:01.244Z,1.20
2023-04-08T18:27:28.471Z,2.13
2023-04-08T18:29:55.847Z,2.10
2023-04-08T18:32:23.059Z,1.92
2023-04-08T18:34:54.106Z,2.10
2023-04-08T18:37:21.753Z,1.45
2023-04-08T18:39:49.192Z,1.20
2023-04-08T18:42:16.402Z,0.82
2023-04-08T18:44:43.639Z,0.88
2023-04-08T18:47:11.351Z,1.65
2023-04-08T18:49:38.708Z,3.28
2023-04-08T18:52:06.859Z,1.85
2023-04-08T18:54:34.037Z,1.35
2023-04-08T18:57:01.740Z,1.73
2023-04-08T18:59:29.893Z,2.20
2023-04-08T19:01:57.322Z,1.70
2023-04-08T19:04:24.834Z,2.50
2023-04-08T19:06:52.126Z,3.30
2023-04-08T19:09:19.805Z,3.17
2023-04-08T19:11:48.582Z,2.30
2023-04-08T19:14:16.076Z,3.50
2023-04-08T19:16:43.637Z,2.95
2023-04-08T19:19:11.049Z,1.85
2023-04-08T19:21:38.333Z,2.00
2023-04-08T19:24:06.559Z,2.20
2023-04-08T19:26:34.141Z,1.85
2023-04-08T19:29:01.440Z,2.17
2023-04-08T19:31:28.974Z,1.95
2023-04-08T19:33:56.257Z,1.40
2023-04-08T19:36:23.478Z,1.17
2023-04-08T19:38:50.844Z,1.15
2023-04-08T19:41:18.140Z,1.13
2023-04-08T19:43:45.381Z,0.85
2023-04-08T19:46:12.587Z,0.88
2023-04-08T19:48:39.880Z,1.38
2023-04-08T19:51:07.725Z,0.60
2023-04-08T19:53:35.065Z,0.98
2023-04-08T19:56:02.833Z,0.80
2023-04-08T19:58:30.136Z,0.90
2023-04-08T20:00:57.435Z,0.90
2023-04-08T20:03:24.822Z,1.95
2023-04-08T20:05:52.578Z,2.10
2023-04-08T20:08:19.821Z,1.48
2023-04-08T20:10:49.081Z,1.23
2023-04-08T20:13:16.547Z,1.75
2023-04-08T20:15:45.373Z,1.27
2023-04-08T20:18:13.847Z,1.45
2023-04-08T20:20:41.667Z,1.27
2023-04-08T20:23:08.867Z,1.65
2023-04-08T20:25:36.143Z,1.40
2023-04-08T20:28:03.368Z,1.30
2023-04-08T20:30:30.834Z,1.20
2023-04-08T20:32:58.155Z,1.10
2023-04-08T20:35:26.159Z,1.33
2023-04-08T20:37:53.708Z,1.85
2023-04-08T20:40:21.088Z,1.92
2023-04-08T20:42:48.438Z,1.52
2023-04-08T20:45:15.664Z,1.42
2023-04-08T20:47:45.715Z,1.42
2023-04-08T20:50:13.033Z,1.63
2023-04-08T20:52:40.322Z,1.42
2023-04-08T20:55:08.151Z,1.83
2023-04-08T20:57:35.835Z,2.50
2023-04-08T21:00:05.678Z,1.73
2023-04-08T21:02:33.718Z,1.45
2023-04-08T21:05:01.797Z,1.80
2023-04-08T21:07:30.388Z,1.75
2023-04-08T21:09:57.706Z,1.30
2023-04-08T21:12:25.154Z,1.30
2023-04-08T21:14:52.421Z,1.10
2023-04-08T21:17:19.640Z,1.48
2023-04-08T21:19:46.961Z,1.13
2023-04-08T21:22:16.291Z,1.13
2023-04-08T21:24:43.548Z,0.70
2023-04-08T21:27:10.835Z,1.15
2023-04-08T21:29:38.134Z,0.75
2023-04-08T21:32:05.422Z,1.13
2023-04-08T21:34:32.686Z,1.00
2023-04-08T21:36:59.943Z,2.10
2023-04-08T21:39:27.146Z,2.15
2023-04-08T21:41:54.353Z,2.47
2023-04-08T21:44:22.376Z,1.40
2023-04-08T21:46:49.883Z,2.17
2023-04-08T21:49:17.241Z,1.50
2023-04-08T21:51:44.505Z,2.25
2023-04-08T21:54:12.587Z,1.95
2023-04-08T21:56:39.859Z,2.00
2023-04-08T21:59:07.087Z,2.50
2023-04-08T22:01:34.354Z,1.88
2023-04-08T22:04:01.707Z,2.72
2023-04-08T22:06:32.645Z,2.30
2023-04-08T22:09:00.281Z,2.00
2023-04-08T22:11:27.540Z,1.85
2023-04-08T22:13:54.814Z,1.40
2023-04-08T22:16:22.069Z,1.00
2023-04-08T22:18:49.487Z,1.05
2023-04-08T22:21:16.776Z,1.17
2023-04-08T22:23:44.008Z,1.00
2023-04-08T22:26:11.212Z,0.93
2023-04-08T22:28:38.454Z,0.70
2023-04-08T22:31:09.480Z,1.40
2023-04-08T22:33:36.925Z,0.80
2023-04-08T22:36:04.297Z,1.17
2023-04-08T22:38:31.806Z,0.80
2023-04-08T22:40:59.102Z,1.20
2023-04-08T22:43:26.337Z,1.25
2023-04-08T22:45:53.537Z,1.48
2023-04-08T22:48:20.873Z,1.75
2023-04-08T22:50:48.142Z,1.17
2023-04-08T22:53:15.777Z,1.30
2023-04-08T22:55:43.028Z,1.50
2023-04-08T22:58:10.509Z,1.50
2023-04-08T23:00:37.721Z,2.03
2023-04-08T23:03:05.074Z,1.88
2023-04-08T23:05:32.430Z,1.58
2023-04-08T23:07:59.737Z,1.63
2023-04-08T23:10:26.972Z,2.28
2023-04-08T23:12:54.248Z,2.08
2023-04-08T23:15:21.664Z,1.65
2023-04-08T23:17:48.933Z,1.80
2023-04-08T23:20:16.317Z,1.48
2023-04-08T23:22:43.543Z,1.90
2023-04-08T23:25:11.089Z,2.25
2023-04-08T23:27:38.337Z,2.42
2023-04-08T23:30:05.937Z,1.60
2023-04-08T23:32:33.735Z,1.58
2023-04-08T23:35:01.420Z,1.95
2023-04-08T23:37:29.174Z,1.80
2023-04-08T23:39:56.432Z,1.50
2023-04-08T23:42:27.213Z,1.30
2023-04-08T23:44:55.316Z,1.40
2023-04-08T23:47:23.049Z,1.30
2023-04-08T23:49:50.419Z,1.00
2023-04-08T23:52:17.627Z,1.85
2023-04-08T23:54:44.849Z,2.00
2023-04-08T23:57:12.080Z,2.22
2023-04-08T23:59:39.292Z,1.80
